createdAt,value
2023-03-11T00:00:47.445Z,45.28
2023-03-11T00:01:47.733Z,43.51
2023-03-11T00:02:46.680Z,45.28
2023-03-11T00:03:46.673Z,44.79
2023-03-11T00:04:46.684Z,43.34
2023-03-11T00:05:46.715Z,44.96
2023-03-11T00:06:46.661Z,42.86
2023-03-11T00:07:46.647Z,46.08
2023-03-11T00:08:46.658Z,41.89
2023-03-11T00:09:46.635Z,41.89
2023-03-11T00:10:46.661Z,43.02
2023-03-11T00:11:46.627Z,43.18
2023-03-11T00:12:46.613Z,41.89
2023-03-11T00:13:46.630Z,41.57
2023-03-11T00:14:46.599Z,42.22
2023-03-11T00:15:46.617Z,43.34
2023-03-11T00:16:47.622Z,42.22
2023-03-11T00:17:46.705Z,41.25
2023-03-11T00:18:46.572Z,47.21
2023-03-11T00:19:46.572Z,43.02
2023-03-11T00:20:46.583Z,44.63
2023-03-11T00:21:46.547Z,42.38
2023-03-11T00:22:46.542Z,41.73
2023-03-11T00:23:46.538Z,41.41
2023-03-11T00:24:46.532Z,41.57
2023-03-11T00:25:46.571Z,42.54
2023-03-11T00:26:46.512Z,41.89
2023-03-11T00:27:46.512Z,42.70
2023-03-11T00:28:46.504Z,43.34
2023-03-11T00:29:46.501Z,42.86
2023-03-11T00:30:46.569Z,41.41
2023-03-11T00:31:46.533Z,42.06
2023-03-11T00:32:46.480Z,42.54
2023-03-11T00:33:46.478Z,43.67
2023-03-11T00:34:46.484Z,43.18
2023-03-11T00:35:46.468Z,44.63
2023-03-11T00:36:46.463Z,45.60
2023-03-11T00:37:46.432Z,42.54
2023-03-11T00:38:46.521Z,43.18
2023-03-11T00:39:46.409Z,57.04
2023-03-11T00:40:46.405Z,57.52
2023-03-11T00:41:46.422Z,57.52
2023-03-11T00:42:46.396Z,58.33
2023-03-11T00:43:46.384Z,57.85
2023-03-11T00:44:46.374Z,58.01
2023-03-11T00:45:46.464Z,58.33
2023-03-11T00:46:46.400Z,58.17
2023-03-11T00:47:46.394Z,58.01
2023-03-11T00:48:46.346Z,58.97
2023-03-11T00:49:46.334Z,58.49
2023-03-11T00:50:46.376Z,58.17
2023-03-11T00:51:46.352Z,58.97
2023-03-11T00:52:46.322Z,59.14
2023-03-11T00:53:46.341Z,58.49
2023-03-11T00:54:46.306Z,58.17
2023-03-11T00:55:46.304Z,57.85
2023-03-11T00:56:46.318Z,58.17
2023-03-11T00:57:46.282Z,58.33
2023-03-11T00:58:46.286Z,57.52
2023-03-11T00:59:46.307Z,58.33
2023-03-11T01:00:46.265Z,57.85
2023-03-11T01:01:46.297Z,58.49
2023-03-11T01:02:46.245Z,58.65
2023-03-11T01:03:46.245Z,58.49
2023-03-11T01:04:46.285Z,58.17
2023-03-11T01:05:46.225Z,58.33
2023-03-11T01:06:46.238Z,58.81
2023-03-11T01:07:46.209Z,58.33
2023-03-11T01:08:46.199Z,58.65
2023-03-11T01:09:46.199Z,58.49
2023-03-11T01:10:46.193Z,58.33
2023-03-11T01:11:46.258Z,57.85
2023-03-11T01:12:46.173Z,58.49
2023-03-11T01:13:46.173Z,58.49
2023-03-11T01:14:46.163Z,58.81
2023-03-11T01:15:46.238Z,59.30
2023-03-11T01:16:46.204Z,58.81
2023-03-11T01:17:46.171Z,58.17
2023-03-11T01:18:46.130Z,58.65
2023-03-11T01:19:46.123Z,58.65
2023-03-11T01:20:46.138Z,58.81
2023-03-11T01:21:46.140Z,58.81
2023-03-11T01:22:46.110Z,58.65
2023-03-11T01:23:46.105Z,58.81
2023-03-11T01:24:46.108Z,58.81
2023-03-11T01:25:46.084Z,58.49
2023-03-11T01:26:46.100Z,59.14
2023-03-11T01:27:46.065Z,58.33
2023-03-11T01:28:46.062Z,58.81
2023-03-11T01:29:46.053Z,58.49
2023-03-11T01:30:46.090Z,58.81
2023-03-11T01:31:46.060Z,58.01
2023-03-11T01:32:46.095Z,58.97
2023-03-11T01:33:46.067Z,58.81
2023-03-11T01:34:46.014Z,58.97
2023-03-11T01:35:46.063Z,59.14
2023-03-11T01:36:46.027Z,58.97
2023-03-11T01:37:45.990Z,58.97
2023-03-11T01:38:45.985Z,58.49
2023-03-11T01:39:45.980Z,58.97
2023-03-11T01:40:45.970Z,58.33
2023-03-11T01:41:45.990Z,58.33
2023-03-11T01:42:45.957Z,58.49
2023-03-11T01:43:45.973Z,58.17
2023-03-11T01:44:45.935Z,58.17
2023-03-11T01:45:45.923Z,58.33
2023-03-11T01:46:46.006Z,58.01
2023-03-11T01:47:45.912Z,58.33
2023-03-11T01:48:45.906Z,58.01
2023-03-11T01:49:45.905Z,58.01
2023-03-11T01:50:45.897Z,58.49
2023-03-11T01:51:45.919Z,58.49
2023-03-11T01:52:46.877Z,58.33
2023-03-11T01:53:45.865Z,58.01
2023-03-11T01:54:45.858Z,57.69
2023-03-11T01:55:45.850Z,58.17
2023-03-11T01:56:45.841Z,58.49
2023-03-11T01:57:45.871Z,57.85
2023-03-11T01:58:45.807Z,57.52
2023-03-11T01:59:46.820Z,58.17
2023-03-11T02:00:45.820Z,58.33
2023-03-11T02:01:45.902Z,58.49
2023-03-11T02:02:45.824Z,57.69
2023-03-11T02:03:45.784Z,57.20
2023-03-11T02:04:45.806Z,58.49
2023-03-11T02:05:45.833Z,57.52
2023-03-11T02:06:45.767Z,57.20
2023-03-11T02:07:45.788Z,56.56
2023-03-11T02:08:45.752Z,41.09
2023-03-11T02:09:45.742Z,45.92
2023-03-11T02:10:45.745Z,41.89
2023-03-11T02:11:45.732Z,39.96
2023-03-11T02:12:45.744Z,38.67
2023-03-11T02:13:45.721Z,45.60
2023-03-11T02:14:45.712Z,47.05
2023-03-11T02:15:45.733Z,43.51
2023-03-11T02:16:45.708Z,43.51
2023-03-11T02:17:45.712Z,44.15
2023-03-11T02:18:45.681Z,42.54
2023-03-11T02:19:45.675Z,43.51
2023-03-11T02:20:45.662Z,42.54
2023-03-11T02:21:45.660Z,46.89
2023-03-11T02:22:45.744Z,42.54
2023-03-11T02:23:45.642Z,42.22
2023-03-11T02:24:45.652Z,43.51
2023-03-11T02:25:45.630Z,42.86
2023-03-11T02:26:45.625Z,43.51
2023-03-11T02:27:45.644Z,45.28
2023-03-11T02:28:45.620Z,44.15
2023-03-11T02:29:45.605Z,43.99
2023-03-11T02:30:45.607Z,47.05
2023-03-11T02:31:45.617Z,45.12
2023-03-11T02:32:45.677Z,43.34
2023-03-11T02:33:45.577Z,44.15
2023-03-11T02:34:45.565Z,46.89
2023-03-11T02:35:45.562Z,45.28
2023-03-11T02:36:45.553Z,44.15
2023-03-11T02:37:45.562Z,41.73
2023-03-11T02:38:46.549Z,43.18
2023-03-11T02:39:45.528Z,43.51
2023-03-11T02:40:45.522Z,42.38
2023-03-11T02:41:45.529Z,41.89
2023-03-11T02:42:45.532Z,42.06
2023-03-11T02:43:45.494Z,42.54
2023-03-11T02:44:45.518Z,43.34
2023-03-11T02:45:45.488Z,42.70
2023-03-11T02:46:45.499Z,42.06
2023-03-11T02:47:45.500Z,41.89
2023-03-11T02:48:45.463Z,42.38
2023-03-11T02:49:45.454Z,47.05
2023-03-11T02:50:45.441Z,43.51
2023-03-11T02:51:45.436Z,43.18
2023-03-11T02:52:45.463Z,43.02
2023-03-11T02:53:45.426Z,42.06
2023-03-11T02:54:45.418Z,44.96
2023-03-11T02:55:45.428Z,42.38
2023-03-11T02:56:45.391Z,44.15
2023-03-11T02:57:45.428Z,44.96
2023-03-11T02:58:45.408Z,45.76
2023-03-11T02:59:45.388Z,43.34
2023-03-11T03:00:45.413Z,41.89
2023-03-11T03:01:45.367Z,42.70
2023-03-11T03:02:45.396Z,42.38
2023-03-11T03:03:45.427Z,42.38
2023-03-11T03:04:45.344Z,43.02
2023-03-11T03:05:45.339Z,43.51
2023-03-11T03:06:45.336Z,43.18
2023-03-11T03:07:45.347Z,42.22
2023-03-11T03:08:45.358Z,42.22
2023-03-11T03:09:45.305Z,42.22
2023-03-11T03:10:45.287Z,42.86
2023-03-11T03:11:45.306Z,42.06
2023-03-11T03:12:45.382Z,42.06
2023-03-11T03:13:45.273Z,42.22
2023-03-11T03:14:45.264Z,41.57
2023-03-11T03:15:45.255Z,41.89
2023-03-11T03:16:45.401Z,42.22
2023-03-11T03:17:45.261Z,41.41
2023-03-11T03:18:45.277Z,41.25
2023-03-11T03:19:45.213Z,44.15
2023-03-11T03:20:46.210Z,43.83
2023-03-11T03:21:45.209Z,43.34
2023-03-11T03:22:45.200Z,41.09
2023-03-11T03:23:45.218Z,41.89
2023-03-11T03:24:45.289Z,41.89
2023-03-11T03:25:45.188Z,41.73
2023-03-11T03:26:45.165Z,41.09
2023-03-11T03:27:45.168Z,41.09
2023-03-11T03:28:45.179Z,43.02
2023-03-11T03:29:45.152Z,42.06
2023-03-11T03:30:45.142Z,43.67
2023-03-11T03:31:45.154Z,43.99
2023-03-11T03:32:45.161Z,41.41
2023-03-11T03:33:45.165Z,40.77
2023-03-11T03:34:45.109Z,40.61
2023-03-11T03:35:45.142Z,41.25
2023-03-11T03:36:45.120Z,43.67
2023-03-11T03:37:45.104Z,42.22
2023-03-11T03:38:45.113Z,41.57
2023-03-11T03:39:45.068Z,42.22
2023-03-11T03:40:45.066Z,47.21
2023-03-11T03:41:45.053Z,42.22
2023-03-11T03:42:45.047Z,44.15
2023-03-11T03:43:45.067Z,43.34
2023-03-11T03:44:45.050Z,42.38
2023-03-11T03:45:45.099Z,42.54
2023-03-11T03:46:45.017Z,45.76
2023-03-11T03:47:45.009Z,42.38
2023-03-11T03:48:45.030Z,41.41
2023-03-11T03:49:45.027Z,41.89
2023-03-11T03:50:45.007Z,42.54
2023-03-11T03:51:45.974Z,41.73
2023-03-11T03:52:44.999Z,41.73
2023-03-11T03:53:44.996Z,41.57
2023-03-11T03:54:44.973Z,42.06
2023-03-11T03:55:44.964Z,43.67
2023-03-11T03:56:44.943Z,43.18
2023-03-11T03:57:44.956Z,42.22
2023-03-11T03:58:44.952Z,41.73
2023-03-11T03:59:44.928Z,40.93
2023-03-11T04:00:44.948Z,42.70
2023-03-11T04:01:44.921Z,42.70
2023-03-11T04:02:44.908Z,43.34
2023-03-11T04:03:44.968Z,45.60
2023-03-11T04:04:44.906Z,44.47
2023-03-11T04:05:44.886Z,43.83
2023-03-11T04:06:44.892Z,42.22
2023-03-11T04:07:44.869Z,41.89
2023-03-11T04:08:44.892Z,45.12
2023-03-11T04:09:44.851Z,41.57
2023-03-11T04:10:44.843Z,40.61
2023-03-11T04:11:44.861Z,41.09
2023-03-11T04:12:44.825Z,41.41
2023-03-11T04:13:44.889Z,42.22
2023-03-11T04:14:44.835Z,44.96
2023-03-11T04:15:44.806Z,43.02
2023-03-11T04:16:44.854Z,41.41
2023-03-11T04:17:44.793Z,41.41
2023-03-11T04:18:44.810Z,44.31
2023-03-11T04:19:44.770Z,43.99
2023-03-11T04:20:44.770Z,43.51
2023-03-11T04:21:44.753Z,45.44
2023-03-11T04:22:44.746Z,45.12
2023-03-11T04:23:44.765Z,43.67
2023-03-11T04:24:44.734Z,43.83
2023-03-11T04:25:44.734Z,41.73
2023-03-11T04:26:44.739Z,42.06
2023-03-11T04:27:44.715Z,41.57
2023-03-11T04:28:44.728Z,40.93
2023-03-11T04:29:44.694Z,41.57
2023-03-11T04:30:44.733Z,42.54
2023-03-11T04:31:44.684Z,46.57
2023-03-11T04:32:44.698Z,42.54
2023-03-11T04:33:44.696Z,44.79
2023-03-11T04:34:44.655Z,43.51
2023-03-11T04:35:44.680Z,42.54
2023-03-11T04:36:44.645Z,42.06
2023-03-11T04:37:44.639Z,42.06
2023-03-11T04:38:44.652Z,44.96
2023-03-11T04:39:44.620Z,46.08
2023-03-11T04:40:44.623Z,41.89
2023-03-11T04:41:44.612Z,57.85
2023-03-11T04:42:44.603Z,58.97
2023-03-11T04:43:44.613Z,60.10
2023-03-11T04:44:44.587Z,59.30
2023-03-11T04:45:44.570Z,58.97
2023-03-11T04:46:44.565Z,59.14
2023-03-11T04:47:44.568Z,58.49
2023-03-11T04:48:44.591Z,58.65
2023-03-11T04:49:44.579Z,57.52
2023-03-11T04:50:44.555Z,57.85
2023-03-11T04:51:44.552Z,58.01
2023-03-11T04:52:45.527Z,57.20
2023-03-11T04:53:44.564Z,58.17
2023-03-11T04:54:44.548Z,57.36
2023-03-11T04:55:44.497Z,57.85
2023-03-11T04:56:44.502Z,57.69
2023-03-11T04:57:44.482Z,57.04
2023-03-11T04:58:44.503Z,57.69
2023-03-11T04:59:44.481Z,57.20
2023-03-11T05:00:44.474Z,57.04
2023-03-11T05:01:44.516Z,57.36
2023-03-11T05:02:44.449Z,57.52
2023-03-11T05:03:44.475Z,57.20
2023-03-11T05:04:44.465Z,57.20
2023-03-11T05:05:44.484Z,57.52
2023-03-11T05:06:44.422Z,57.20
2023-03-11T05:07:44.407Z,57.69
2023-03-11T05:08:44.433Z,56.56
2023-03-11T05:09:44.390Z,58.01
2023-03-11T05:10:44.387Z,57.04
2023-03-11T05:11:44.378Z,56.88
2023-03-11T05:12:44.371Z,57.04
2023-03-11T05:13:44.421Z,46.73
2023-03-11T05:14:44.353Z,39.80
2023-03-11T05:15:44.375Z,44.47
2023-03-11T05:16:44.344Z,41.89
2023-03-11T05:17:44.336Z,47.37
2023-03-11T05:18:44.353Z,43.18
2023-03-11T05:19:44.318Z,39.96
2023-03-11T05:20:44.310Z,42.86
2023-03-11T05:21:44.304Z,43.99
2023-03-11T05:22:44.297Z,49.63
2023-03-11T05:23:44.313Z,43.99
2023-03-11T05:24:44.285Z,42.38
2023-03-11T05:25:44.275Z,44.31
2023-03-11T05:26:44.658Z,42.06
2023-03-11T05:27:44.270Z,45.60
2023-03-11T05:28:44.288Z,43.02
2023-03-11T05:29:44.242Z,45.12
2023-03-11T05:30:44.235Z,42.86
2023-03-11T05:31:44.220Z,42.06
2023-03-11T05:32:45.252Z,42.38
2023-03-11T05:33:44.238Z,44.63
2023-03-11T05:34:44.214Z,43.83
2023-03-11T05:35:44.262Z,42.22
2023-03-11T05:36:44.188Z,45.28
2023-03-11T05:37:44.189Z,42.54
2023-03-11T05:38:44.217Z,44.47
2023-03-11T05:39:44.183Z,40.77
2023-03-11T05:40:44.172Z,46.57
2023-03-11T05:41:44.151Z,46.25
2023-03-11T05:42:44.143Z,45.92
2023-03-11T05:43:44.172Z,42.38
2023-03-11T05:44:44.133Z,42.06
2023-03-11T05:45:44.125Z,45.44
2023-03-11T05:46:44.217Z,48.50
2023-03-11T05:47:44.113Z,43.67
2023-03-11T05:48:44.137Z,43.02
2023-03-11T05:49:44.112Z,43.34
2023-03-11T05:50:44.082Z,44.63
2023-03-11T05:51:44.081Z,43.02
2023-03-11T05:52:44.079Z,43.02
2023-03-11T05:53:44.070Z,42.70
2023-03-11T05:54:44.094Z,43.18
2023-03-11T05:55:44.061Z,45.28
2023-03-11T05:56:44.046Z,44.31
2023-03-11T05:57:44.044Z,44.79
2023-03-11T05:58:44.027Z,44.15
2023-03-11T05:59:44.067Z,41.41
2023-03-11T06:00:44.020Z,43.51
2023-03-11T06:01:44.018Z,44.63
2023-03-11T06:02:44.012Z,43.34
2023-03-11T06:03:44.085Z,43.83
2023-03-11T06:04:44.065Z,43.99
2023-03-11T06:05:43.973Z,43.67
2023-03-11T06:06:43.961Z,42.54
2023-03-11T06:07:43.958Z,43.67
2023-03-11T06:08:43.950Z,46.73
2023-03-11T06:09:43.972Z,43.67
2023-03-11T06:10:43.941Z,41.73
2023-03-11T06:11:43.935Z,46.25
2023-03-11T06:12:43.931Z,42.70
2023-03-11T06:13:43.911Z,42.86
2023-03-11T06:14:43.936Z,44.63
2023-03-11T06:15:43.898Z,43.83
2023-03-11T06:16:43.900Z,43.83
2023-03-11T06:17:43.883Z,47.53
2023-03-11T06:18:43.885Z,43.18
2023-03-11T06:19:43.893Z,45.12
2023-03-11T06:20:43.858Z,49.31
2023-03-11T06:21:43.860Z,44.15
2023-03-11T06:22:43.847Z,45.28
2023-03-11T06:23:44.835Z,42.86
2023-03-11T06:24:43.855Z,42.86
2023-03-11T06:25:43.824Z,46.57
2023-03-11T06:26:43.822Z,43.67
2023-03-11T06:27:43.806Z,44.63
2023-03-11T06:28:43.795Z,43.67
2023-03-11T06:29:43.829Z,44.63
2023-03-11T06:30:43.780Z,42.54
2023-03-11T06:31:43.819Z,44.63
2023-03-11T06:32:43.919Z,44.79
2023-03-11T06:33:43.765Z,42.86
2023-03-11T06:34:43.767Z,42.54
2023-03-11T06:35:43.834Z,45.44
2023-03-11T06:36:43.744Z,48.18
2023-03-11T06:37:43.725Z,46.89
2023-03-11T06:38:43.722Z,45.28
2023-03-11T06:39:43.738Z,44.96
2023-03-11T06:40:43.713Z,47.70
2023-03-11T06:41:43.692Z,45.60
2023-03-11T06:42:43.684Z,48.02
2023-03-11T06:43:43.728Z,43.18
2023-03-11T06:44:43.699Z,47.70
2023-03-11T06:45:43.689Z,44.47
2023-03-11T06:46:43.654Z,44.15
2023-03-11T06:47:43.661Z,44.79
2023-03-11T06:48:43.650Z,46.73
2023-03-11T06:49:43.662Z,43.51
2023-03-11T06:50:43.631Z,42.86
2023-03-11T06:51:43.628Z,58.97
2023-03-11T06:52:43.622Z,59.78
2023-03-11T06:53:43.604Z,58.33
2023-03-11T06:54:43.630Z,59.14
2023-03-11T06:55:43.600Z,58.17
2023-03-11T06:56:43.585Z,57.85
2023-03-11T06:57:43.578Z,58.33
2023-03-11T06:58:43.587Z,58.01
2023-03-11T06:59:43.585Z,58.01
2023-03-11T07:00:43.617Z,58.65
2023-03-11T07:01:43.548Z,58.17
2023-03-11T07:02:43.543Z,59.14
2023-03-11T07:03:43.565Z,58.49
2023-03-11T07:04:43.548Z,58.33
2023-03-11T07:05:43.520Z,57.85
2023-03-11T07:06:43.513Z,57.85
2023-03-11T07:07:43.506Z,58.65
2023-03-11T07:08:43.509Z,57.85
2023-03-11T07:09:43.517Z,57.85
2023-03-11T07:10:43.483Z,58.97
2023-03-11T07:11:43.487Z,58.65
2023-03-11T07:12:43.484Z,58.81
2023-03-11T07:13:43.470Z,58.65
2023-03-11T07:14:43.531Z,58.65
2023-03-11T07:15:43.449Z,58.33
2023-03-11T07:16:43.490Z,58.65
2023-03-11T07:17:43.419Z,58.49
2023-03-11T07:18:43.416Z,58.49
2023-03-11T07:19:43.441Z,58.81
2023-03-11T07:20:43.408Z,58.81
2023-03-11T07:21:43.394Z,58.81
2023-03-11T07:22:43.396Z,59.14
2023-03-11T07:23:43.407Z,58.33
2023-03-11T07:24:43.399Z,58.01
2023-03-11T07:25:43.370Z,58.65
2023-03-11T07:26:44.610Z,58.65
2023-03-11T07:27:44.350Z,58.97
2023-03-11T07:28:43.333Z,58.81
2023-03-11T07:29:44.363Z,57.85
2023-03-11T07:30:43.337Z,58.49
2023-03-11T07:31:43.385Z,58.81
2023-03-11T07:32:43.375Z,58.81
2023-03-11T07:33:43.322Z,58.97
2023-03-11T07:34:43.319Z,58.97
2023-03-11T07:35:44.354Z,58.17
2023-03-11T07:36:43.289Z,58.33
2023-03-11T07:37:43.315Z,58.33
2023-03-11T07:38:43.282Z,58.97
2023-03-11T07:39:43.315Z,58.49
2023-03-11T07:40:43.285Z,58.81
2023-03-11T07:41:43.259Z,58.65
2023-03-11T07:42:43.243Z,58.65
2023-03-11T07:43:43.242Z,58.81
2023-03-11T07:44:43.257Z,59.14
2023-03-11T07:45:43.254Z,58.65
2023-03-11T07:46:43.222Z,58.65
2023-03-11T07:47:43.210Z,58.65
2023-03-11T07:48:43.203Z,59.14
2023-03-11T07:49:43.243Z,58.97
2023-03-11T07:50:43.199Z,58.01
2023-03-11T07:51:43.187Z,58.65
2023-03-11T07:52:43.174Z,58.65
2023-03-11T07:53:43.168Z,58.65
2023-03-11T07:54:43.190Z,58.97
2023-03-11T07:55:43.155Z,58.81
2023-03-11T07:56:43.130Z,58.65
2023-03-11T07:57:44.148Z,58.33
2023-03-11T07:58:45.260Z,58.33
2023-03-11T07:59:43.130Z,58.65
2023-03-11T08:00:44.114Z,58.49
2023-03-11T08:01:43.100Z,58.81
2023-03-11T08:02:43.131Z,58.49
2023-03-11T08:03:43.097Z,57.85
2023-03-11T08:04:43.110Z,58.65
2023-03-11T08:05:43.068Z,58.65
2023-03-11T08:06:43.082Z,58.65
2023-03-11T08:07:43.131Z,58.49
2023-03-11T08:08:43.039Z,58.17
2023-03-11T08:09:43.074Z,58.81
2023-03-11T08:10:43.037Z,58.81
2023-03-11T08:11:43.033Z,58.01
2023-03-11T08:12:43.011Z,58.65
2023-03-11T08:13:43.018Z,58.81
2023-03-11T08:14:43.026Z,58.17
2023-03-11T08:15:43.030Z,58.49
2023-03-11T08:16:42.990Z,58.01
2023-03-11T08:17:42.980Z,58.49
2023-03-11T08:18:42.987Z,57.85
2023-03-11T08:19:42.983Z,58.33
2023-03-11T08:20:42.954Z,58.17
2023-03-11T08:21:42.948Z,58.33
2023-03-11T08:22:55.573Z,58.33
2023-03-11T08:23:44.933Z,58.65
2023-03-11T08:24:43.039Z,42.22
2023-03-11T08:25:42.929Z,46.73
2023-03-11T08:26:42.919Z,47.21
2023-03-11T08:27:42.928Z,51.24
2023-03-11T08:28:42.898Z,50.27
2023-03-11T08:29:42.931Z,48.50
2023-03-11T08:30:42.961Z,47.70
2023-03-11T08:31:42.886Z,46.57
2023-03-11T08:32:42.906Z,44.31
2023-03-11T08:33:42.866Z,47.70
2023-03-11T08:34:42.853Z,44.47
2023-03-11T08:35:42.908Z,50.27
2023-03-11T08:36:42.844Z,47.86
2023-03-11T08:37:42.835Z,51.56
2023-03-11T08:38:42.860Z,50.27
2023-03-11T08:39:42.811Z,48.66
2023-03-11T08:40:42.848Z,47.70
2023-03-11T08:41:42.813Z,48.98
2023-03-11T08:42:43.788Z,47.70
2023-03-11T08:43:42.790Z,46.57
2023-03-11T08:44:42.778Z,49.15
2023-03-11T08:45:42.855Z,48.02
2023-03-11T08:46:42.837Z,48.02
2023-03-11T08:47:42.759Z,47.53
2023-03-11T08:48:42.749Z,47.53
2023-03-11T08:49:42.739Z,48.02
2023-03-11T08:50:53.479Z,51.40
2023-03-11T08:51:44.730Z,49.15
2023-03-11T08:52:42.744Z,49.15
2023-03-11T08:53:42.708Z,47.70
2023-03-11T08:54:42.699Z,50.11
2023-03-11T08:55:42.734Z,50.27
2023-03-11T08:56:42.687Z,48.34
2023-03-11T08:57:42.690Z,49.63
2023-03-11T08:58:42.674Z,47.86
2023-03-11T08:59:42.694Z,49.47
2023-03-11T09:00:42.698Z,49.31
2023-03-11T09:01:42.650Z,48.66
2023-03-11T09:02:42.680Z,47.70
2023-03-11T09:03:42.644Z,48.66
2023-03-11T09:04:42.631Z,45.76
2023-03-11T09:05:42.659Z,47.37
2023-03-11T09:06:42.623Z,48.82
2023-03-11T09:07:42.624Z,47.37
2023-03-11T09:08:42.600Z,46.25
2023-03-11T09:09:42.615Z,48.66
2023-03-11T09:10:42.626Z,50.43
2023-03-11T09:11:42.577Z,48.02
2023-03-11T09:12:42.574Z,48.18
2023-03-11T09:13:42.602Z,50.11
2023-03-11T09:14:42.612Z,50.27
2023-03-11T09:15:42.588Z,50.92
2023-03-11T09:16:42.547Z,46.57
2023-03-11T09:17:44.399Z,48.82
2023-03-11T09:18:42.585Z,49.31
2023-03-11T09:19:42.622Z,49.31
2023-03-11T09:20:42.540Z,47.70
2023-03-11T09:21:42.554Z,50.27
2023-03-11T09:22:42.535Z,49.47
2023-03-11T09:23:44.363Z,48.18
2023-03-11T09:24:43.483Z,47.86
2023-03-11T09:25:42.511Z,48.18
2023-03-11T09:26:42.479Z,50.76
2023-03-11T09:27:42.481Z,47.70
2023-03-11T09:28:42.482Z,49.79
2023-03-11T09:29:42.452Z,50.76
2023-03-11T09:30:42.463Z,52.85
2023-03-11T09:31:42.530Z,53.82
2023-03-11T09:32:42.466Z,50.27
2023-03-11T09:33:42.449Z,49.63
2023-03-11T09:34:42.415Z,53.33
2023-03-11T09:35:42.472Z,54.30
2023-03-11T09:36:42.385Z,54.95
2023-03-11T09:37:42.394Z,50.92
2023-03-11T09:38:42.379Z,52.05
2023-03-11T09:39:42.372Z,52.53
2023-03-11T09:40:42.401Z,50.92
2023-03-11T09:41:55.659Z,51.88
2023-03-11T09:42:44.356Z,52.85
2023-03-11T09:43:42.350Z,53.82
2023-03-11T09:44:42.334Z,47.86
2023-03-11T09:45:42.350Z,48.34
2023-03-11T09:46:42.337Z,47.86
2023-03-11T09:47:42.330Z,51.24
2023-03-11T09:48:42.312Z,49.47
2023-03-11T09:49:42.302Z,48.02
2023-03-11T09:50:42.318Z,46.73
2023-03-11T09:51:43.289Z,49.95
2023-03-11T09:52:42.283Z,47.53
2023-03-11T09:53:42.282Z,48.82
2023-03-11T09:54:42.264Z,46.25
2023-03-11T09:55:42.289Z,48.18
2023-03-11T09:56:44.362Z,48.18
2023-03-11T09:57:43.234Z,46.57
2023-03-11T09:58:42.236Z,47.70
2023-03-11T09:59:42.221Z,46.25
2023-03-11T10:00:42.252Z,48.18
2023-03-11T10:01:42.282Z,48.82
2023-03-11T10:02:42.339Z,50.27
2023-03-11T10:03:42.183Z,45.60
2023-03-11T10:04:42.183Z,48.18
2023-03-11T10:05:42.220Z,47.53
2023-03-11T10:06:42.173Z,47.86
2023-03-11T10:07:42.154Z,46.41
2023-03-11T10:08:42.183Z,49.15
2023-03-11T10:09:42.152Z,46.41
2023-03-11T10:10:42.164Z,48.82
2023-03-11T10:11:42.134Z,49.63
2023-03-11T10:12:42.138Z,49.47
2023-03-11T10:13:42.132Z,47.37
2023-03-11T10:14:42.112Z,50.43
2023-03-11T10:15:42.144Z,48.82
2023-03-11T10:16:42.129Z,51.24
2023-03-11T10:17:42.109Z,49.63
2023-03-11T10:18:42.073Z,48.82
2023-03-11T10:19:42.083Z,48.50
2023-03-11T10:20:42.091Z,48.98
2023-03-11T10:21:42.069Z,49.79
2023-03-11T10:22:42.045Z,50.60
2023-03-11T10:23:42.038Z,52.05
2023-03-11T10:24:42.043Z,49.95
2023-03-11T10:25:42.053Z,52.37
2023-03-11T10:26:42.022Z,51.24
2023-03-11T10:27:42.130Z,51.08
2023-03-11T10:28:42.997Z,49.79
2023-03-11T10:29:42.002Z,49.31
2023-03-11T10:30:42.026Z,53.82
2023-03-11T10:31:42.012Z,48.82
2023-03-11T10:32:41.994Z,48.18
2023-03-11T10:33:41.998Z,43.99
2023-03-11T10:34:41.981Z,46.89
2023-03-11T10:35:42.008Z,46.73
2023-03-11T10:36:41.942Z,46.25
2023-03-11T10:37:49.420Z,47.53
2023-03-11T10:38:43.927Z,51.88
2023-03-11T10:39:41.920Z,48.50
2023-03-11T10:40:41.931Z,50.11
2023-03-11T10:41:41.921Z,48.50
2023-03-11T10:42:42.894Z,46.08
2023-03-11T10:43:41.895Z,46.57
2023-03-11T10:44:41.901Z,48.82
2023-03-11T10:45:41.993Z,49.63
2023-03-11T10:46:41.908Z,47.86
2023-03-11T10:47:41.859Z,46.57
2023-03-11T10:48:41.850Z,47.05
2023-03-11T10:49:41.894Z,47.86
2023-03-11T10:50:41.829Z,47.70
2023-03-11T10:51:41.856Z,48.66
2023-03-11T10:52:41.841Z,48.02
2023-03-11T10:53:41.813Z,51.08
2023-03-11T10:54:41.798Z,47.86
2023-03-11T10:55:41.799Z,47.21
2023-03-11T10:56:41.858Z,47.86
2023-03-11T10:57:41.832Z,50.27
2023-03-11T10:58:41.786Z,45.76
2023-03-11T10:59:41.776Z,50.60
2023-03-11T11:00:41.767Z,48.18
2023-03-11T11:01:41.781Z,46.73
2023-03-11T11:02:43.696Z,52.37
2023-03-11T11:03:42.741Z,49.31
2023-03-11T11:04:41.818Z,46.57
2023-03-11T11:05:41.732Z,45.92
2023-03-11T11:06:41.744Z,48.50
2023-03-11T11:07:41.707Z,52.53
2023-03-11T11:08:41.705Z,49.47
2023-03-11T11:09:41.693Z,48.66
2023-03-11T11:10:41.691Z,48.98
2023-03-11T11:11:41.711Z,48.18
2023-03-11T11:12:41.675Z,48.02
2023-03-11T11:13:41.667Z,49.47
2023-03-11T11:14:41.707Z,49.15
2023-03-11T11:15:41.697Z,47.86
2023-03-11T11:16:41.711Z,46.57
2023-03-11T11:17:41.641Z,51.24
2023-03-11T11:18:41.643Z,47.21
2023-03-11T11:19:41.648Z,47.37
2023-03-11T11:20:41.622Z,48.34
2023-03-11T11:21:41.991Z,47.86
2023-03-11T11:22:41.614Z,49.31
2023-03-11T11:23:41.610Z,47.37
2023-03-11T11:24:41.593Z,46.08
2023-03-11T11:25:41.588Z,45.12
2023-03-11T11:26:42.245Z,47.21
2023-03-11T11:27:41.588Z,48.02
2023-03-11T11:28:41.587Z,49.47
2023-03-11T11:29:41.577Z,48.18
2023-03-11T11:30:41.635Z,49.95
2023-03-11T11:31:41.580Z,48.02
2023-03-11T11:32:41.573Z,49.79
2023-03-11T11:33:41.532Z,49.63
2023-03-11T11:34:41.525Z,51.40
2023-03-11T11:35:41.574Z,49.47
2023-03-11T11:36:41.540Z,49.15
2023-03-11T11:37:41.499Z,45.76
2023-03-11T11:38:41.500Z,50.92
2023-03-11T11:39:41.531Z,48.82
2023-03-11T11:40:41.473Z,49.95
2023-03-11T11:41:41.499Z,48.66
2023-03-11T11:42:41.506Z,46.25
2023-03-11T11:43:41.456Z,48.66
2023-03-11T11:44:41.439Z,47.05
2023-03-11T11:45:41.458Z,51.08
2023-03-11T11:46:41.477Z,47.53
2023-03-11T11:47:41.414Z,47.86
2023-03-11T11:48:41.413Z,47.70
2023-03-11T11:49:41.401Z,49.79
2023-03-11T11:50:42.252Z,51.72
2023-03-11T11:51:41.416Z,50.76
2023-03-11T11:52:41.376Z,46.08
2023-03-11T11:53:41.385Z,47.86
2023-03-11T11:54:41.409Z,47.53
2023-03-11T11:55:41.361Z,46.57
2023-03-11T11:56:41.424Z,49.63
2023-03-11T11:57:41.354Z,49.63
2023-03-11T11:58:41.354Z,47.86
2023-03-11T11:59:41.338Z,48.50
2023-03-11T12:00:41.331Z,45.44
2023-03-11T12:01:41.354Z,46.08
2023-03-11T12:02:41.306Z,49.47
2023-03-11T12:03:41.316Z,48.34
2023-03-11T12:04:41.295Z,47.53
2023-03-11T12:05:41.412Z,46.08
2023-03-11T12:06:41.272Z,52.69
2023-03-11T12:07:41.299Z,49.95
2023-03-11T12:08:41.268Z,50.43
2023-03-11T12:09:41.258Z,49.79
2023-03-11T12:10:41.260Z,47.86
2023-03-11T12:11:42.028Z,53.66
2023-03-11T12:12:42.261Z,47.21
2023-03-11T12:13:41.222Z,51.56
2023-03-11T12:14:41.221Z,49.95
2023-03-11T12:15:41.256Z,47.37
2023-03-11T12:16:41.202Z,46.57
2023-03-11T12:17:41.215Z,46.89
2023-03-11T12:18:41.196Z,46.08
2023-03-11T12:19:41.185Z,46.25
2023-03-11T12:20:41.186Z,51.88
2023-03-11T12:21:41.171Z,46.25
2023-03-11T12:22:41.187Z,46.57
2023-03-11T12:23:41.164Z,47.70
2023-03-11T12:24:41.142Z,47.05
2023-03-11T12:25:41.153Z,45.12
2023-03-11T12:26:41.146Z,48.18
2023-03-11T12:27:41.166Z,44.63
2023-03-11T12:28:41.114Z,49.47
2023-03-11T12:29:43.088Z,47.05
2023-03-11T12:30:41.116Z,49.95
2023-03-11T12:31:41.152Z,48.02
2023-03-11T12:32:41.136Z,48.50
2023-03-11T12:33:41.091Z,50.27
2023-03-11T12:34:41.075Z,46.73
2023-03-11T12:35:41.121Z,47.86
2023-03-11T12:36:41.069Z,47.86
2023-03-11T12:37:41.104Z,47.86
2023-03-11T12:38:41.847Z,48.66
2023-03-11T12:39:41.158Z,48.18
2023-03-11T12:40:41.058Z,47.37
2023-03-11T12:41:41.034Z,45.92
2023-03-11T12:42:41.050Z,46.57
2023-03-11T12:43:41.012Z,46.25
2023-03-11T12:44:41.015Z,45.44
2023-03-11T12:45:41.016Z,49.79
2023-03-11T12:46:40.993Z,48.98
2023-03-11T12:47:41.005Z,49.79
2023-03-11T12:48:40.963Z,45.92
2023-03-11T12:49:40.960Z,46.57
2023-03-11T12:50:40.951Z,45.92
2023-03-11T12:51:40.955Z,46.89
2023-03-11T12:52:40.960Z,45.76